UMBB

Brest Airport

Brest, Belarus
TAF UMBB 211705Z 2118/2203 25006G11MPS 6000 BKN010 BKN020CB TX27/2118Z TN13/2203Z TEMPO 2118/2124 VRB14MPS 2000 TSRAGR SQ BKN005 TEMPO 2200/2203 2000 SHRA BKN005
Issued Valid From Valid To
Jun-21 @ 17:05 UTC
(an hour ago)
Jun-21 @ 18:00 UTC
(12 minutes ago)
Jun-22 @ 03:00 UTC
(in 9 hours)
Jun-21 @ 18:00 to Jun-22 @ 03:00
TAF UMBB 211705Z 2118/2203 25006G11MPS 6000 BKN010 BKN020CB TX27/2118Z TN13/2203Z
Wind Visibility Clouds
250° at 12 knots
 Gusting to 21 knots
6,003 meters
  • Broken at 1,000' AGL
  • Broken at 2,000' AGL
Temporary Jun-21 @ 18:00 to Jun-22 @ 00:00
TEMPO 2118/2124 VRB14MPS 2000 TSRAGR SQ BKN005
Wind Visibility Clouds Conditions
Variable at 27 knots 1,996 meters
  • Broken at 500' AGL
  • Thunderstorm
  • Rain
  • Thunderstorm
  • Hail
  • Squalls
Temporary Jun-22 @ 00:00 to Jun-22 @ 03:00
TEMPO 2200/2203 2000 SHRA BKN005
Visibility Clouds Conditions
1,996 meters
  • Broken at 500' AGL
  • Rain
TAF UMBB 211705Z 2118/2203 25006G11MPS 6000 BKN010 BKN020CB TX27/2118Z TN13/2203Z TEMPO 2118/2124 VRB14MPS 2000 TSRAGR SQ BKN005 TEMPO 2200/2203 2000 SHRA BKN005
Issued Jun-21 @ 17:05 UTC
(an hour ago)
Valid From Jun-21 @ 18:00 UTC
(12 minutes ago)
Valid To Jun-22 @ 03:00 UTC
(in 9 hours)
Jun-21 @ 18:00 - Jun-22 @ 03:00
Wind Visibility
250° at 12 knots
 Gusting to 21 knots
6,003 meters
Clouds
  • Broken at 1,000' AGL
  • Broken at 2,000' AGL
Temporary Jun-21 @ 18:00 - Jun-22 @ 00:00
Wind Visibility
Variable at 27 knots 1,996 meters
Clouds
  • Broken at 500' AGL
Conditions
  • Thunderstorm
  • Rain
  • Thunderstorm
  • Hail
  • Squalls
Temporary Jun-22 @ 00:00 - Jun-22 @ 03:00
Clouds
  • Broken at 500' AGL
Conditions
  • Rain